sensor_id;sensor_type;location;lat;lon;timestamp;temperature;humidity
46732;DHT22;32477;51.474;5.696;2022-08-01T00:01:35;19.40;99.90
46732;DHT22;32477;51.474;5.696;2022-08-01T00:04:01;19.40;99.90
46732;DHT22;32477;51.474;5.696;2022-08-01T00:06:27;19.40;99.90
46732;DHT22;32477;51.474;5.696;2022-08-01T00:08:52;19.40;99.90
46732;DHT22;32477;51.474;5.696;2022-08-01T00:11:18;19.40;99.90
46732;DHT22;32477;51.474;5.696;2022-08-01T00:13:44;19.40;99.90
46732;DHT22;32477;51.474;5.696;2022-08-01T00:16:09;19.40;99.90
46732;DHT22;32477;51.474;5.696;2022-08-01T00:18:35;19.40;99.90
46732;DHT22;32477;51.474;5.696;2022-08-01T00:21:02;19.40;99.90
46732;DHT22;32477;51.474;5.696;2022-08-01T00:23:28;19.40;99.90
46732;DHT22;32477;51.474;5.696;2022-08-01T00:25:54;19.40;99.90
46732;DHT22;32477;51.474;5.696;2022-08-01T00:28:19;19.40;99.90
46732;DHT22;32477;51.474;5.696;2022-08-01T00:30:45;19.40;99.90
46732;DHT22;32477;51.474;5.696;2022-08-01T00:33:11;19.40;99.90
46732;DHT22;32477;51.474;5.696;2022-08-01T00:35:36;19.40;99.90
46732;DHT22;32477;51.474;5.696;2022-08-01T00:38:02;19.40;99.90
46732;DHT22;32477;51.474;5.696;2022-08-01T00:40:31;19.50;99.90
46732;DHT22;32477;51.474;5.696;2022-08-01T00:42:57;19.50;99.90
46732;DHT22;32477;51.474;5.696;2022-08-01T00:45:23;19.50;99.90
46732;DHT22;32477;51.474;5.696;2022-08-01T00:47:49;19.50;99.90
46732;DHT22;32477;51.474;5.696;2022-08-01T00:50:15;19.50;99.90
46732;DHT22;32477;51.474;5.696;2022-08-01T00:52:41;19.50;99.90
46732;DHT22;32477;51.474;5.696;2022-08-01T00:55:08;19.50;99.90
46732;DHT22;32477;51.474;5.696;2022-08-01T00:57:34;19.50;99.90
46732;DHT22;32477;51.474;5.696;2022-08-01T01:00:00;19.40;99.90
46732;DHT22;32477;51.474;5.696;2022-08-01T01:02:26;19.50;99.90
46732;DHT22;32477;51.474;5.696;2022-08-01T01:04:52;19.40;99.90
46732;DHT22;32477;51.474;5.696;2022-08-01T01:07:25;19.40;99.90
46732;DHT22;32477;51.474;5.696;2022-08-01T01:10:21;19.40;99.90
46732;DHT22;32477;51.474;5.696;2022-08-01T01:12:52;19.40;99.90
46732;DHT22;32477;51.474;5.696;2022-08-01T01:15:29;19.40;99.90
46732;DHT22;32477;51.474;5.696;2022-08-01T01:18:05;19.40;99.90
46732;DHT22;32477;51.474;5.696;2022-08-01T01:20:37;19.40;99.90
46732;DHT22;32477;51.474;5.696;2022-08-01T01:26:14;19.40;99.90
46732;DHT22;32477;51.474;5.696;2022-08-01T01:28:59;19.40;99.90
46732;DHT22;32477;51.474;5.696;2022-08-01T01:31:26;19.30;99.90
46732;DHT22;32477;51.474;5.696;2022-08-01T01:33:54;19.30;99.90
46732;DHT22;32477;51.474;5.696;2022-08-01T01:36:21;19.30;99.90
46732;DHT22;32477;51.474;5.696;2022-08-01T01:38:50;19.30;99.90
46732;DHT22;32477;51.474;5.696;2022-08-01T01:41:18;19.30;99.90
46732;DHT22;32477;51.474;5.696;2022-08-01T01:43:45;19.30;99.90
46732;DHT22;32477;51.474;5.696;2022-08-01T01:46:12;19.30;99.90
46732;DHT22;32477;51.474;5.696;2022-08-01T01:48:43;19.30;99.90
46732;DHT22;32477;51.474;5.696;2022-08-01T01:51:11;19.30;99.90
46732;DHT22;32477;51.474;5.696;2022-08-01T01:53:39;19.30;99.90
46732;DHT22;32477;51.474;5.696;2022-08-01T01:56:06;19.30;99.90
46732;DHT22;32477;51.474;5.696;2022-08-01T01:58:35;19.20;99.90
46732;DHT22;32477;51.474;5.696;2022-08-01T02:01:04;19.20;99.90
46732;DHT22;32477;51.474;5.696;2022-08-01T02:03:34;19.10;99.90
46732;DHT22;32477;51.474;5.696;2022-08-01T02:06:02;19.10;99.90
46732;DHT22;32477;51.474;5.696;2022-08-01T02:08:29;19.10;99.90
46732;DHT22;32477;51.474;5.696;2022-08-01T02:10:56;19.00;99.90
46732;DHT22;32477;51.474;5.696;2022-08-01T02:13:40;19.00;99.90
46732;DHT22;32477;51.474;5.696;2022-08-01T02:16:07;19.00;99.90
46732;DHT22;32477;51.474;5.696;2022-08-01T02:18:34;19.00;99.90
46732;DHT22;32477;51.474;5.696;2022-08-01T02:21:03;19.00;99.90
46732;DHT22;32477;51.474;5.696;2022-08-01T02:23:36;19.00;99.90
46732;DHT22;32477;51.474;5.696;2022-08-01T02:26:10;19.00;99.90
46732;DHT22;32477;51.474;5.696;2022-08-01T02:28:53;19.00;99.90
46732;DHT22;32477;51.474;5.696;2022-08-01T02:31:21;19.00;99.90
46732;DHT22;32477;51.474;5.696;2022-08-01T02:34:15;19.00;99.90
46732;DHT22;32477;51.474;5.696;2022-08-01T02:36:44;19.00;99.90
46732;DHT22;32477;51.474;5.696;2022-08-01T02:39:14;19.00;99.90
46732;DHT22;32477;51.474;5.696;2022-08-01T02:41:43;19.00;99.90
46732;DHT22;32477;51.474;5.696;2022-08-01T02:44:13;19.00;99.90
46732;DHT22;32477;51.474;5.696;2022-08-01T02:47:00;19.00;99.90
46732;DHT22;32477;51.474;5.696;2022-08-01T02:49:35;19.00;99.90
46732;DHT22;32477;51.474;5.696;2022-08-01T02:52:05;19.00;99.90
46732;DHT22;32477;51.474;5.696;2022-08-01T02:54:33;18.90;99.90
46732;DHT22;32477;51.474;5.696;2022-08-01T02:57:02;19.00;99.90
46732;DHT22;32477;51.474;5.696;2022-08-01T02:59:32;19.00;99.90
46732;DHT22;32477;51.474;5.696;2022-08-01T03:02:00;18.90;99.90
46732;DHT22;32477;51.474;5.696;2022-08-01T03:04:27;18.90;99.90
46732;DHT22;32477;51.474;5.696;2022-08-01T03:06:57;18.90;99.90
46732;DHT22;32477;51.474;5.696;2022-08-01T03:09:26;18.90;99.90
46732;DHT22;32477;51.474;5.696;2022-08-01T03:11:52;18.90;99.90
46732;DHT22;32477;51.474;5.696;2022-08-01T03:14:20;18.90;99.90
46732;DHT22;32477;51.474;5.696;2022-08-01T03:16:49;18.90;99.90
46732;DHT22;32477;51.474;5.696;2022-08-01T03:19:16;18.90;99.90
46732;DHT22;32477;51.474;5.696;2022-08-01T03:21:44;18.80;99.90
46732;DHT22;32477;51.474;5.696;2022-08-01T03:24:11;18.80;99.90
46732;DHT22;32477;51.474;5.696;2022-08-01T03:26:39;18.80;99.90
46732;DHT22;32477;51.474;5.696;2022-08-01T03:29:10;18.80;99.90
46732;DHT22;32477;51.474;5.696;2022-08-01T03:31:38;18.80;99.90
46732;DHT22;32477;51.474;5.696;2022-08-01T03:34:08;18.90;99.90
46732;DHT22;32477;51.474;5.696;2022-08-01T03:36:43;18.80;99.90
46732;DHT22;32477;51.474;5.696;2022-08-01T03:39:11;18.80;99.90
46732;DHT22;32477;51.474;5.696;2022-08-01T03:41:41;18.80;99.90
46732;DHT22;32477;51.474;5.696;2022-08-01T03:44:14;18.80;99.90
46732;DHT22;32477;51.474;5.696;2022-08-01T03:46:45;18.80;99.90
46732;DHT22;32477;51.474;5.696;2022-08-01T03:49:16;18.90;99.90
46732;DHT22;32477;51.474;5.696;2022-08-01T03:51:44;18.80;99.90
46732;DHT22;32477;51.474;5.696;2022-08-01T03:54:21;18.80;99.90
46732;DHT22;32477;51.474;5.696;2022-08-01T03:56:50;18.80;99.90
46732;DHT22;32477;51.474;5.696;2022-08-01T03:59:17;18.80;99.90
46732;DHT22;32477;51.474;5.696;2022-08-01T04:01:45;18.80;99.90
46732;DHT22;32477;51.474;5.696;2022-08-01T04:04:12;18.80;99.90
46732;DHT22;32477;51.474;5.696;2022-08-01T04:06:39;18.80;99.90
46732;DHT22;32477;51.474;5.696;2022-08-01T04:09:07;18.80;99.90
46732;DHT22;32477;51.474;5.696;2022-08-01T04:11:33;18.80;99.90
46732;DHT22;32477;51.474;5.696;2022-08-01T04:13:59;18.80;99.90
46732;DHT22;32477;51.474;5.696;2022-08-01T04:16:25;18.80;99.90
46732;DHT22;32477;51.474;5.696;2022-08-01T04:18:51;18.80;99.90
46732;DHT22;32477;51.474;5.696;2022-08-01T04:21:20;18.80;99.90
46732;DHT22;32477;51.474;5.696;2022-08-01T04:23:48;18.80;99.90
46732;DHT22;32477;51.474;5.696;2022-08-01T04:26:16;18.90;99.90
46732;DHT22;32477;51.474;5.696;2022-08-01T04:28:43;18.80;99.90
46732;DHT22;32477;51.474;5.696;2022-08-01T04:31:10;18.90;99.90
46732;DHT22;32477;51.474;5.696;2022-08-01T04:33:40;18.90;99.90
46732;DHT22;32477;51.474;5.696;2022-08-01T04:36:10;18.90;99.90
46732;DHT22;32477;51.474;5.696;2022-08-01T04:38:38;18.90;99.90
46732;DHT22;32477;51.474;5.696;2022-08-01T04:41:06;18.90;99.90
46732;DHT22;32477;51.474;5.696;2022-08-01T04:43:33;18.90;99.90
46732;DHT22;32477;51.474;5.696;2022-08-01T04:46:00;19.00;99.90
46732;DHT22;32477;51.474;5.696;2022-08-01T04:48:29;19.00;99.90
46732;DHT22;32477;51.474;5.696;2022-08-01T04:50:57;18.90;99.90
46732;DHT22;32477;51.474;5.696;2022-08-01T04:53:22;18.90;99.90
46732;DHT22;32477;51.474;5.696;2022-08-01T04:55:49;18.80;99.90
46732;DHT22;32477;51.474;5.696;2022-08-01T04:58:15;18.80;99.90
46732;DHT22;32477;51.474;5.696;2022-08-01T05:00:41;18.80;99.90
46732;DHT22;32477;51.474;5.696;2022-08-01T05:03:07;18.80;99.90
46732;DHT22;32477;51.474;5.696;2022-08-01T05:05:34;18.90;99.90
46732;DHT22;32477;51.474;5.696;2022-08-01T05:08:00;18.90;99.90
46732;DHT22;32477;51.474;5.696;2022-08-01T05:10:26;19.00;99.90
46732;DHT22;32477;51.474;5.696;2022-08-01T05:12:52;19.10;99.90
46732;DHT22;32477;51.474;5.696;2022-08-01T05:15:18;19.10;99.90
46732;DHT22;32477;51.474;5.696;2022-08-01T05:17:44;19.10;99.90
46732;DHT22;32477;51.474;5.696;2022-08-01T05:20:12;19.20;99.90
46732;DHT22;32477;51.474;5.696;2022-08-01T05:22:42;19.20;99.90
46732;DHT22;32477;51.474;5.696;2022-08-01T05:25:08;19.20;99.90
46732;DHT22;32477;51.474;5.696;2022-08-01T05:27:34;19.20;99.90
46732;DHT22;32477;51.474;5.696;2022-08-01T05:30:14;19.20;99.90
46732;DHT22;32477;51.474;5.696;2022-08-01T05:32:42;19.20;99.90
46732;DHT22;32477;51.474;5.696;2022-08-01T05:35:08;19.40;99.90
46732;DHT22;32477;51.474;5.696;2022-08-01T05:37:34;19.50;99.90
46732;DHT22;32477;51.474;5.696;2022-08-01T05:40:00;19.50;99.90
46732;DHT22;32477;51.474;5.696;2022-08-01T05:42:26;19.50;99.90
46732;DHT22;32477;51.474;5.696;2022-08-01T05:44:52;19.70;99.90
46732;DHT22;32477;51.474;5.696;2022-08-01T05:47:18;19.80;99.90
46732;DHT22;32477;51.474;5.696;2022-08-01T05:49:45;19.90;99.90
46732;DHT22;32477;51.474;5.696;2022-08-01T05:52:11;20.10;99.90
46732;DHT22;32477;51.474;5.696;2022-08-01T05:54:37;20.40;99.90
46732;DHT22;32477;51.474;5.696;2022-08-01T05:57:03;20.30;99.90
46732;DHT22;32477;51.474;5.696;2022-08-01T05:59:29;20.30;99.90
46732;DHT22;32477;51.474;5.696;2022-08-01T06:01:55;20.20;99.90
46732;DHT22;32477;51.474;5.696;2022-08-01T06:04:21;20.20;99.90
46732;DHT22;32477;51.474;5.696;2022-08-01T06:06:46;20.20;99.90
46732;DHT22;32477;51.474;5.696;2022-08-01T06:09:12;20.20;99.90
46732;DHT22;32477;51.474;5.696;2022-08-01T06:11:38;20.40;99.90
46732;DHT22;32477;51.474;5.696;2022-08-01T06:14:03;20.40;99.90
46732;DHT22;32477;51.474;5.696;2022-08-01T06:16:29;20.50;99.90
46732;DHT22;32477;51.474;5.696;2022-08-01T06:18:54;20.60;99.90
46732;DHT22;32477;51.474;5.696;2022-08-01T06:21:20;20.70;99.90
46732;DHT22;32477;51.474;5.696;2022-08-01T06:23:46;20.70;99.90
46732;DHT22;32477;51.474;5.696;2022-08-01T06:26:12;20.50;99.90
46732;DHT22;32477;51.474;5.696;2022-08-01T06:28:37;20.40;99.90
46732;DHT22;32477;51.474;5.696;2022-08-01T06:31:04;20.40;99.90
46732;DHT22;32477;51.474;5.696;2022-08-01T06:33:29;20.40;99.90
46732;DHT22;32477;51.474;5.696;2022-08-01T06:35:55;20.30;99.90
46732;DHT22;32477;51.474;5.696;2022-08-01T06:38:21;20.30;99.90
46732;DHT22;32477;51.474;5.696;2022-08-01T06:40:48;20.40;99.90
46732;DHT22;32477;51.474;5.696;2022-08-01T06:43:13;20.50;99.90
46732;DHT22;32477;51.474;5.696;2022-08-01T06:45:39;20.70;99.90
46732;DHT22;32477;51.474;5.696;2022-08-01T06:48:05;20.70;99.90
46732;DHT22;32477;51.474;5.696;2022-08-01T06:50:31;20.80;99.90
46732;DHT22;32477;51.474;5.696;2022-08-01T06:52:57;20.80;99.90
46732;DHT22;32477;51.474;5.696;2022-08-01T06:55:25;20.80;99.90
46732;DHT22;32477;51.474;5.696;2022-08-01T06:57:52;20.90;99.90
46732;DHT22;32477;51.474;5.696;2022-08-01T07:00:20;20.90;99.90
46732;DHT22;32477;51.474;5.696;2022-08-01T07:02:49;21.10;99.90
46732;DHT22;32477;51.474;5.696;2022-08-01T07:05:14;21.10;99.90
46732;DHT22;32477;51.474;5.696;2022-08-01T07:07:40;21.20;99.90
46732;DHT22;32477;51.474;5.696;2022-08-01T07:10:06;21.30;99.90
46732;DHT22;32477;51.474;5.696;2022-08-01T07:12:34;21.50;99.90
46732;DHT22;32477;51.474;5.696;2022-08-01T07:15:03;21.70;99.90
46732;DHT22;32477;51.474;5.696;2022-08-01T07:17:28;22.30;99.90
46732;DHT22;32477;51.474;5.696;2022-08-01T07:19:54;22.60;99.90
46732;DHT22;32477;51.474;5.696;2022-08-01T07:22:20;22.50;99.90
46732;DHT22;32477;51.474;5.696;2022-08-01T07:24:46;22.20;99.90
46732;DHT22;32477;51.474;5.696;2022-08-01T07:27:12;22.10;99.90
46732;DHT22;32477;51.474;5.696;2022-08-01T07:29:37;21.90;99.90
46732;DHT22;32477;51.474;5.696;2022-08-01T07:32:03;21.90;99.90
46732;DHT22;32477;51.474;5.696;2022-08-01T07:34:29;21.90;99.90
46732;DHT22;32477;51.474;5.696;2022-08-01T07:36:55;22.10;99.90
46732;DHT22;32477;51.474;5.696;2022-08-01T07:39:20;22.30;99.90
46732;DHT22;32477;51.474;5.696;2022-08-01T07:41:46;22.60;99.90
46732;DHT22;32477;51.474;5.696;2022-08-01T07:44:18;22.90;99.90
46732;DHT22;32477;51.474;5.696;2022-08-01T07:46:43;22.80;99.90
46732;DHT22;32477;51.474;5.696;2022-08-01T07:49:09;23.00;99.90
46732;DHT22;32477;51.474;5.696;2022-08-01T07:51:34;22.90;99.90
46732;DHT22;32477;51.474;5.696;2022-08-01T07:54:00;22.70;99.90
46732;DHT22;32477;51.474;5.696;2022-08-01T07:56:26;22.40;99.90
46732;DHT22;32477;51.474;5.696;2022-08-01T07:58:52;22.30;99.90
46732;DHT22;32477;51.474;5.696;2022-08-01T08:01:17;22.10;99.90
46732;DHT22;32477;51.474;5.696;2022-08-01T08:03:44;22.20;99.90
46732;DHT22;32477;51.474;5.696;2022-08-01T08:06:10;22.60;99.90
46732;DHT22;32477;51.474;5.696;2022-08-01T08:08:36;23.20;99.90
46732;DHT22;32477;51.474;5.696;2022-08-01T08:11:01;23.50;99.90
46732;DHT22;32477;51.474;5.696;2022-08-01T08:13:27;24.00;99.90
46732;DHT22;32477;51.474;5.696;2022-08-01T08:15:53;25.00;99.90
46732;DHT22;32477;51.474;5.696;2022-08-01T08:18:19;26.20;99.90
46732;DHT22;32477;51.474;5.696;2022-08-01T08:20:45;27.10;99.90
46732;DHT22;32477;51.474;5.696;2022-08-01T08:23:11;27.90;99.90
46732;DHT22;32477;51.474;5.696;2022-08-01T08:25:57;29.20;99.90
46732;DHT22;32477;51.474;5.696;2022-08-01T08:28:23;28.30;99.90
46732;DHT22;32477;51.474;5.696;2022-08-01T08:30:49;27.20;99.90
46732;DHT22;32477;51.474;5.696;2022-08-01T08:33:19;26.40;99.90
46732;DHT22;32477;51.474;5.696;2022-08-01T08:35:45;26.70;99.90
46732;DHT22;32477;51.474;5.696;2022-08-01T08:38:11;27.30;99.90
46732;DHT22;32477;51.474;5.696;2022-08-01T08:40:41;27.30;99.90
46732;DHT22;32477;51.474;5.696;2022-08-01T08:43:08;27.50;99.90
46732;DHT22;32477;51.474;5.696;2022-08-01T08:45:42;27.00;99.90
46732;DHT22;32477;51.474;5.696;2022-08-01T08:48:08;26.40;99.90
46732;DHT22;32477;51.474;5.696;2022-08-01T08:50:34;25.90;99.90
46732;DHT22;32477;51.474;5.696;2022-08-01T08:53:03;25.40;99.90
46732;DHT22;32477;51.474;5.696;2022-08-01T08:55:30;24.80;99.90
46732;DHT22;32477;51.474;5.696;2022-08-01T08:57:59;24.40;99.90
46732;DHT22;32477;51.474;5.696;2022-08-01T09:00:27;24.20;99.90
46732;DHT22;32477;51.474;5.696;2022-08-01T09:02:54;24.20;99.90
46732;DHT22;32477;51.474;5.696;2022-08-01T09:05:23;24.50;99.90
46732;DHT22;32477;51.474;5.696;2022-08-01T09:07:52;25.60;99.90
46732;DHT22;32477;51.474;5.696;2022-08-01T09:10:20;26.80;99.90
46732;DHT22;32477;51.474;5.696;2022-08-01T09:13:11;27.80;99.90
46732;DHT22;32477;51.474;5.696;2022-08-01T09:15:50;28.50;98.70
46732;DHT22;32477;51.474;5.696;2022-08-01T09:18:40;28.20;98.70
46732;DHT22;32477;51.474;5.696;2022-08-01T09:21:13;28.10;99.20
46732;DHT22;32477;51.474;5.696;2022-08-01T09:23:49;27.90;99.40
46732;DHT22;32477;51.474;5.696;2022-08-01T09:26:18;28.40;98.90
46732;DHT22;32477;51.474;5.696;2022-08-01T09:28:46;28.80;96.50
46732;DHT22;32477;51.474;5.696;2022-08-01T09:31:17;29.30;96.50
46732;DHT22;32477;51.474;5.696;2022-08-01T09:36:19;31.10;94.00
46732;DHT22;32477;51.474;5.696;2022-08-01T09:38:47;32.00;92.30
46732;DHT22;32477;51.474;5.696;2022-08-01T09:41:13;32.30;91.30
46732;DHT22;32477;51.474;5.696;2022-08-01T09:43:38;31.40;92.40
46732;DHT22;32477;51.474;5.696;2022-08-01T09:46:10;30.60;92.80
46732;DHT22;32477;51.474;5.696;2022-08-01T09:49:01;29.90;92.20
46732;DHT22;32477;51.474;5.696;2022-08-01T09:51:38;29.30;93.20
46732;DHT22;32477;51.474;5.696;2022-08-01T09:54:06;28.30;94.40
46732;DHT22;32477;51.474;5.696;2022-08-01T09:56:42;27.70;95.90
46732;DHT22;32477;51.474;5.696;2022-08-01T09:59:08;27.20;96.30
46732;DHT22;32477;51.474;5.696;2022-08-01T10:01:46;28.20;96.20
46732;DHT22;32477;51.474;5.696;2022-08-01T10:04:20;29.70;93.90
46732;DHT22;32477;51.474;5.696;2022-08-01T10:06:48;31.20;92.20
46732;DHT22;32477;51.474;5.696;2022-08-01T10:09:29;31.00;91.20
46732;DHT22;32477;51.474;5.696;2022-08-01T10:11:55;30.80;90.60
46732;DHT22;32477;51.474;5.696;2022-08-01T10:14:25;29.40;93.20
46732;DHT22;32477;51.474;5.696;2022-08-01T10:16:56;28.40;93.60
46732;DHT22;32477;51.474;5.696;2022-08-01T10:22:05;26.80;96.70
46732;DHT22;32477;51.474;5.696;2022-08-01T10:24:39;26.90;97.50
46732;DHT22;32477;51.474;5.696;2022-08-01T10:27:09;28.30;96.40
46732;DHT22;32477;51.474;5.696;2022-08-01T10:29:58;29.30;95.90
46732;DHT22;32477;51.474;5.696;2022-08-01T10:32:33;29.40;96.40
46732;DHT22;32477;51.474;5.696;2022-08-01T10:35:00;30.00;94.80
46732;DHT22;32477;51.474;5.696;2022-08-01T10:37:28;29.90;94.80
46732;DHT22;32477;51.474;5.696;2022-08-01T10:39:55;28.60;95.90
46732;DHT22;32477;51.474;5.696;2022-08-01T10:42:21;28.60;96.00
46732;DHT22;32477;51.474;5.696;2022-08-01T10:44:47;28.00;95.10
46732;DHT22;32477;51.474;5.696;2022-08-01T10:47:17;27.60;96.80
46732;DHT22;32477;51.474;5.696;2022-08-01T10:49:56;27.80;97.00
46732;DHT22;32477;51.474;5.696;2022-08-01T10:52:25;27.80;95.50
46732;DHT22;32477;51.474;5.696;2022-08-01T10:55:07;28.60;95.60
46732;DHT22;32477;51.474;5.696;2022-08-01T10:57:46;28.20;95.50
46732;DHT22;32477;51.474;5.696;2022-08-01T11:00:20;28.90;95.10
46732;DHT22;32477;51.474;5.696;2022-08-01T11:03:01;30.50;93.10
46732;DHT22;32477;51.474;5.696;2022-08-01T11:05:35;30.90;93.00
46732;DHT22;32477;51.474;5.696;2022-08-01T11:08:10;32.30;91.30
46732;DHT22;32477;51.474;5.696;2022-08-01T11:10:47;32.70;90.10
46732;DHT22;32477;51.474;5.696;2022-08-01T11:13:13;31.10;91.10
46732;DHT22;32477;51.474;5.696;2022-08-01T11:15:40;29.30;92.40
46732;DHT22;32477;51.474;5.696;2022-08-01T11:18:29;28.40;94.00
46732;DHT22;32477;51.474;5.696;2022-08-01T11:20:58;28.30;94.30
46732;DHT22;32477;51.474;5.696;2022-08-01T11:23:25;29.20;93.60
46732;DHT22;32477;51.474;5.696;2022-08-01T11:28:25;27.80;94.20
46732;DHT22;32477;51.474;5.696;2022-08-01T11:38:40;26.80;96.60
46732;DHT22;32477;51.474;5.696;2022-08-01T11:41:30;26.70;97.70
46732;DHT22;32477;51.474;5.696;2022-08-01T11:46:53;25.70;98.90
46732;DHT22;32477;51.474;5.696;2022-08-01T11:52:25;23.90;99.90
46732;DHT22;32477;51.474;5.696;2022-08-01T11:55:12;23.70;99.90
46732;DHT22;32477;51.474;5.696;2022-08-01T11:57:40;24.90;99.90
46732;DHT22;32477;51.474;5.696;2022-08-01T12:00:17;26.50;99.90
46732;DHT22;32477;51.474;5.696;2022-08-01T12:02:48;27.50;99.70
46732;DHT22;32477;51.474;5.696;2022-08-01T12:05:21;27.50;97.60
46732;DHT22;32477;51.474;5.696;2022-08-01T12:07:50;27.30;97.40
46732;DHT22;32477;51.474;5.696;2022-08-01T12:10:19;27.70;96.70
46732;DHT22;32477;51.474;5.696;2022-08-01T12:13:14;28.30;96.20
46732;DHT22;32477;51.474;5.696;2022-08-01T12:15:40;28.00;95.90
46732;DHT22;32477;51.474;5.696;2022-08-01T12:18:06;28.30;96.00
46732;DHT22;32477;51.474;5.696;2022-08-01T12:20:37;28.40;95.50
46732;DHT22;32477;51.474;5.696;2022-08-01T12:23:07;28.00;95.70
46732;DHT22;32477;51.474;5.696;2022-08-01T12:25:35;28.00;95.60
46732;DHT22;32477;51.474;5.696;2022-08-01T12:28:02;27.60;96.10
46732;DHT22;32477;51.474;5.696;2022-08-01T12:30:31;27.00;96.20
46732;DHT22;32477;51.474;5.696;2022-08-01T12:33:03;26.40;97.00
46732;DHT22;32477;51.474;5.696;2022-08-01T12:35:30;25.60;98.00
46732;DHT22;32477;51.474;5.696;2022-08-01T12:37:59;25.30;98.30
46732;DHT22;32477;51.474;5.696;2022-08-01T12:40:28;25.10;99.30
46732;DHT22;32477;51.474;5.696;2022-08-01T12:42:57;25.40;99.10
46732;DHT22;32477;51.474;5.696;2022-08-01T12:48:00;25.60;98.80
46732;DHT22;32477;51.474;5.696;2022-08-01T12:50:30;25.90;99.00
46732;DHT22;32477;51.474;5.696;2022-08-01T12:52:57;26.30;98.30
46732;DHT22;32477;51.474;5.696;2022-08-01T12:55:25;26.80;96.90
46732;DHT22;32477;51.474;5.696;2022-08-01T12:58:10;26.80;96.70
46732;DHT22;32477;51.474;5.696;2022-08-01T13:00:37;26.50;96.90
46732;DHT22;32477;51.474;5.696;2022-08-01T13:03:13;25.90;97.40
46732;DHT22;32477;51.474;5.696;2022-08-01T13:05:51;25.70;97.80
46732;DHT22;32477;51.474;5.696;2022-08-01T13:08:22;26.00;97.80
46732;DHT22;32477;51.474;5.696;2022-08-01T13:10:48;26.10;97.80
46732;DHT22;32477;51.474;5.696;2022-08-01T13:13:16;26.00;97.50
46732;DHT22;32477;51.474;5.696;2022-08-01T13:15:43;26.00;97.30
46732;DHT22;32477;51.474;5.696;2022-08-01T13:18:40;26.50;96.80
46732;DHT22;32477;51.474;5.696;2022-08-01T13:24:09;27.50;95.20
46732;DHT22;32477;51.474;5.696;2022-08-01T13:26:49;27.30;95.80
46732;DHT22;32477;51.474;5.696;2022-08-01T13:29:19;27.10;95.60
46732;DHT22;32477;51.474;5.696;2022-08-01T13:31:46;26.50;95.70
46732;DHT22;32477;51.474;5.696;2022-08-01T13:34:12;25.90;97.10
46732;DHT22;32477;51.474;5.696;2022-08-01T13:36:39;26.30;96.80
46732;DHT22;32477;51.474;5.696;2022-08-01T13:39:05;26.60;95.70
46732;DHT22;32477;51.474;5.696;2022-08-01T13:41:50;26.20;96.30
46732;DHT22;32477;51.474;5.696;2022-08-01T13:44:16;25.70;96.60
46732;DHT22;32477;51.474;5.696;2022-08-01T13:46:43;26.10;97.20
46732;DHT22;32477;51.474;5.696;2022-08-01T13:49:09;26.60;95.80
46732;DHT22;32477;51.474;5.696;2022-08-01T13:51:36;27.00;95.20
46732;DHT22;32477;51.474;5.696;2022-08-01T13:54:02;27.20;95.00
46732;DHT22;32477;51.474;5.696;2022-08-01T13:56:28;27.40;94.20
46732;DHT22;32477;51.474;5.696;2022-08-01T13:58:54;26.60;95.10
46732;DHT22;32477;51.474;5.696;2022-08-01T14:01:20;26.00;96.10
46732;DHT22;32477;51.474;5.696;2022-08-01T14:03:46;27.40;95.60
46732;DHT22;32477;51.474;5.696;2022-08-01T14:06:12;28.20;94.00
46732;DHT22;32477;51.474;5.696;2022-08-01T14:08:39;29.10;93.00
46732;DHT22;32477;51.474;5.696;2022-08-01T14:11:05;29.10;92.90
46732;DHT22;32477;51.474;5.696;2022-08-01T14:13:30;29.90;90.80
46732;DHT22;32477;51.474;5.696;2022-08-01T14:15:58;29.70;90.30
46732;DHT22;32477;51.474;5.696;2022-08-01T14:18:25;28.80;91.50
46732;DHT22;32477;51.474;5.696;2022-08-01T14:20:52;27.80;93.00
46732;DHT22;32477;51.474;5.696;2022-08-01T14:23:18;27.10;93.50
46732;DHT22;32477;51.474;5.696;2022-08-01T14:25:43;27.00;93.80
46732;DHT22;32477;51.474;5.696;2022-08-01T14:28:09;26.70;93.50
46732;DHT22;32477;51.474;5.696;2022-08-01T14:30:35;26.70;93.70
46732;DHT22;32477;51.474;5.696;2022-08-01T14:33:04;27.20;93.10
46732;DHT22;32477;51.474;5.696;2022-08-01T14:35:29;27.60;92.60
46732;DHT22;32477;51.474;5.696;2022-08-01T14:37:55;27.20;92.30
46732;DHT22;32477;51.474;5.696;2022-08-01T14:40:22;26.70;91.90
46732;DHT22;32477;51.474;5.696;2022-08-01T14:42:48;26.60;92.70
46732;DHT22;32477;51.474;5.696;2022-08-01T14:45:19;26.20;92.50
46732;DHT22;32477;51.474;5.696;2022-08-01T14:47:53;26.10;92.70
46732;DHT22;32477;51.474;5.696;2022-08-01T14:50:18;25.80;93.10
46732;DHT22;32477;51.474;5.696;2022-08-01T14:52:45;25.70;93.10
46732;DHT22;32477;51.474;5.696;2022-08-01T14:55:17;25.80;93.20
46732;DHT22;32477;51.474;5.696;2022-08-01T14:57:44;26.10;93.10
46732;DHT22;32477;51.474;5.696;2022-08-01T15:00:12;26.00;92.50
46732;DHT22;32477;51.474;5.696;2022-08-01T15:02:41;25.90;92.80
46732;DHT22;32477;51.474;5.696;2022-08-01T15:05:10;26.00;92.70
46732;DHT22;32477;51.474;5.696;2022-08-01T15:07:37;26.10;92.20
46732;DHT22;32477;51.474;5.696;2022-08-01T15:10:04;26.10;91.80
46732;DHT22;32477;51.474;5.696;2022-08-01T15:12:29;26.20;91.80
46732;DHT22;32477;51.474;5.696;2022-08-01T15:14:55;26.00;91.40
46732;DHT22;32477;51.474;5.696;2022-08-01T15:17:26;26.00;91.90
46732;DHT22;32477;51.474;5.696;2022-08-01T15:20:01;26.10;92.80
46732;DHT22;32477;51.474;5.696;2022-08-01T15:22:27;25.50;93.80
46732;DHT22;32477;51.474;5.696;2022-08-01T15:24:55;25.20;94.60
46732;DHT22;32477;51.474;5.696;2022-08-01T15:27:21;25.00;94.20
46732;DHT22;32477;51.474;5.696;2022-08-01T15:29:48;25.00;94.40
46732;DHT22;32477;51.474;5.696;2022-08-01T15:32:14;25.20;93.30
46732;DHT22;32477;51.474;5.696;2022-08-01T15:34:40;25.20;93.80
46732;DHT22;32477;51.474;5.696;2022-08-01T15:37:07;25.00;93.40
46732;DHT22;32477;51.474;5.696;2022-08-01T15:39:33;25.00;93.80
46732;DHT22;32477;51.474;5.696;2022-08-01T15:42:02;25.10;93.80
46732;DHT22;32477;51.474;5.696;2022-08-01T15:44:28;25.10;93.50
46732;DHT22;32477;51.474;5.696;2022-08-01T15:46:54;25.10;93.70
46732;DHT22;32477;51.474;5.696;2022-08-01T15:49:19;25.20;93.40
46732;DHT22;32477;51.474;5.696;2022-08-01T15:51:48;25.10;92.30
46732;DHT22;32477;51.474;5.696;2022-08-01T15:54:13;25.10;91.90
46732;DHT22;32477;51.474;5.696;2022-08-01T15:56:39;25.10;91.40
46732;DHT22;32477;51.474;5.696;2022-08-01T15:59:05;25.30;92.40
46732;DHT22;32477;51.474;5.696;2022-08-01T16:01:31;25.20;92.50
46732;DHT22;32477;51.474;5.696;2022-08-01T16:03:58;25.00;93.70
46732;DHT22;32477;51.474;5.696;2022-08-01T16:06:24;24.80;94.40
46732;DHT22;32477;51.474;5.696;2022-08-01T16:08:50;24.80;94.90
46732;DHT22;32477;51.474;5.696;2022-08-01T16:11:16;24.80;94.30